sensor_id;sensor_type;location;lat;lon;timestamp;P1;durP1;ratioP1;P2;durP2;ratioP2
37777;SDS011;23615;51.506;7.678;2022-09-27T00:01:21;5.28;;;3.47;;
37777;SDS011;23615;51.506;7.678;2022-09-27T00:03:46;5.07;;;2.90;;
37777;SDS011;23615;51.506;7.678;2022-09-27T00:06:12;4.97;;;3.13;;
37777;SDS011;23615;51.506;7.678;2022-09-27T00:08:42;5.15;;;3.10;;
37777;SDS011;23615;51.506;7.678;2022-09-27T00:11:27;6.03;;;3.20;;
37777;SDS011;23615;51.506;7.678;2022-09-27T00:13:56;4.13;;;2.65;;
37777;SDS011;23615;51.506;7.678;2022-09-27T00:16:23;4.40;;;2.63;;
37777;SDS011;23615;51.506;7.678;2022-09-27T00:18:50;5.28;;;2.75;;
37777;SDS011;23615;51.506;7.678;2022-09-27T00:21:16;4.17;;;2.17;;
37777;SDS011;23615;51.506;7.678;2022-09-27T00:23:41;4.20;;;2.30;;
37777;SDS011;23615;51.506;7.678;2022-09-27T00:26:07;3.10;;;2.00;;
37777;SDS011;23615;51.506;7.678;2022-09-27T00:28:35;4.25;;;1.95;;
37777;SDS011;23615;51.506;7.678;2022-09-27T00:31:01;4.80;;;1.50;;
37777;SDS011;23615;51.506;7.678;2022-09-27T00:33:26;3.00;;;0.93;;
37777;SDS011;23615;51.506;7.678;2022-09-27T00:35:52;3.05;;;1.00;;
37777;SDS011;23615;51.506;7.678;2022-09-27T00:38:17;2.40;;;1.07;;
37777;SDS011;23615;51.506;7.678;2022-09-27T00:40:43;2.53;;;0.60;;
37777;SDS011;23615;51.506;7.678;2022-09-27T00:43:13;1.88;;;0.63;;
37777;SDS011;23615;51.506;7.678;2022-09-27T00:45:43;2.15;;;0.60;;
37777;SDS011;23615;51.506;7.678;2022-09-27T00:48:15;3.93;;;1.00;;
37777;SDS011;23615;51.506;7.678;2022-09-27T00:50:45;2.25;;;0.63;;
37777;SDS011;23615;51.506;7.678;2022-09-27T00:53:14;4.53;;;1.00;;
37777;SDS011;23615;51.506;7.678;2022-09-27T00:55:47;2.80;;;0.77;;
37777;SDS011;23615;51.506;7.678;2022-09-27T00:58:17;2.57;;;0.70;;
37777;SDS011;23615;51.506;7.678;2022-09-27T01:00:47;2.08;;;0.75;;
37777;SDS011;23615;51.506;7.678;2022-09-27T01:03:23;3.20;;;1.00;;
37777;SDS011;23615;51.506;7.678;2022-09-27T01:05:55;2.43;;;0.70;;
37777;SDS011;23615;51.506;7.678;2022-09-27T01:08:22;3.95;;;0.73;;
37777;SDS011;23615;51.506;7.678;2022-09-27T01:10:58;2.30;;;0.90;;
37777;SDS011;23615;51.506;7.678;2022-09-27T01:13:48;4.95;;;0.90;;
37777;SDS011;23615;51.506;7.678;2022-09-27T01:16:29;3.88;;;1.08;;
37777;SDS011;23615;51.506;7.678;2022-09-27T01:19:08;3.35;;;0.90;;
37777;SDS011;23615;51.506;7.678;2022-09-27T01:30:26;2.28;;;0.55;;
37777;SDS011;23615;51.506;7.678;2022-09-27T01:33:02;1.77;;;0.80;;
37777;SDS011;23615;51.506;7.678;2022-09-27T01:44:00;1.90;;;0.45;;
37777;SDS011;23615;51.506;7.678;2022-09-27T01:46:32;2.42;;;0.80;;
37777;SDS011;23615;51.506;7.678;2022-09-27T01:49:10;2.88;;;0.50;;
37777;SDS011;23615;51.506;7.678;2022-09-27T01:51:43;2.17;;;0.70;;
37777;SDS011;23615;51.506;7.678;2022-09-27T01:54:14;2.25;;;0.70;;
37777;SDS011;23615;51.506;7.678;2022-09-27T01:56:45;3.17;;;0.70;;
37777;SDS011;23615;51.506;7.678;2022-09-27T01:59:14;2.85;;;0.77;;
37777;SDS011;23615;51.506;7.678;2022-09-27T02:01:47;2.70;;;1.05;;
37777;SDS011;23615;51.506;7.678;2022-09-27T02:04:17;2.03;;;1.23;;
37777;SDS011;23615;51.506;7.678;2022-09-27T02:06:47;1.35;;;0.90;;
37777;SDS011;23615;51.506;7.678;2022-09-27T02:09:19;3.22;;;1.25;;
37777;SDS011;23615;51.506;7.678;2022-09-27T02:11:52;2.92;;;1.27;;
37777;SDS011;23615;51.506;7.678;2022-09-27T02:14:28;3.28;;;1.40;;
37777;SDS011;23615;51.506;7.678;2022-09-27T02:20:34;2.50;;;1.55;;
37777;SDS011;23615;51.506;7.678;2022-09-27T02:22:56;3.58;;;1.42;;
37777;SDS011;23615;51.506;7.678;2022-09-27T02:30:47;3.28;;;2.25;;
37777;SDS011;23615;51.506;7.678;2022-09-27T02:33:13;3.47;;;2.40;;
37777;SDS011;23615;51.506;7.678;2022-09-27T02:35:38;4.30;;;3.60;;
37777;SDS011;23615;51.506;7.678;2022-09-27T02:38:04;4.20;;;3.40;;
37777;SDS011;23615;51.506;7.678;2022-09-27T02:40:32;5.43;;;3.80;;
37777;SDS011;23615;51.506;7.678;2022-09-27T02:42:59;6.15;;;3.60;;
37777;SDS011;23615;51.506;7.678;2022-09-27T02:45:29;5.75;;;3.65;;
37777;SDS011;23615;51.506;7.678;2022-09-27T02:48:19;8.15;;;4.35;;
37777;SDS011;23615;51.506;7.678;2022-09-27T02:51:03;7.22;;;4.07;;
37777;SDS011;23615;51.506;7.678;2022-09-27T02:56:27;6.97;;;4.25;;
37777;SDS011;23615;51.506;7.678;2022-09-27T02:59:07;7.85;;;5.13;;
37777;SDS011;23615;51.506;7.678;2022-09-27T03:01:43;7.55;;;5.15;;
37777;SDS011;23615;51.506;7.678;2022-09-27T03:06:47;7.72;;;5.65;;
37777;SDS011;23615;51.506;7.678;2022-09-27T03:09:56;8.27;;;4.80;;
37777;SDS011;23615;51.506;7.678;2022-09-27T03:12:08;8.27;;;5.10;;
37777;SDS011;23615;51.506;7.678;2022-09-27T03:14:33;5.80;;;4.93;;
37777;SDS011;23615;51.506;7.678;2022-09-27T03:16:59;7.00;;;4.73;;
37777;SDS011;23615;51.506;7.678;2022-09-27T03:19:24;5.50;;;4.93;;
37777;SDS011;23615;51.506;7.678;2022-09-27T03:21:49;6.87;;;4.97;;
37777;SDS011;23615;51.506;7.678;2022-09-27T03:24:15;5.10;;;3.60;;
37777;SDS011;23615;51.506;7.678;2022-09-27T03:26:40;5.27;;;3.50;;
37777;SDS011;23615;51.506;7.678;2022-09-27T03:29:05;4.30;;;3.47;;
37777;SDS011;23615;51.506;7.678;2022-09-27T03:31:30;3.47;;;2.63;;
37777;SDS011;23615;51.506;7.678;2022-09-27T03:33:56;4.07;;;2.97;;
37777;SDS011;23615;51.506;7.678;2022-09-27T03:36:21;3.50;;;2.50;;
37777;SDS011;23615;51.506;7.678;2022-09-27T03:38:46;5.77;;;2.30;;
37777;SDS011;23615;51.506;7.678;2022-09-27T03:41:12;3.20;;;1.73;;
37777;SDS011;23615;51.506;7.678;2022-09-27T03:43:37;2.87;;;1.83;;
37777;SDS011;23615;51.506;7.678;2022-09-27T03:46:03;4.47;;;1.88;;
37777;SDS011;23615;51.506;7.678;2022-09-27T03:48:28;2.00;;;1.50;;
37777;SDS011;23615;51.506;7.678;2022-09-27T03:50:55;2.40;;;2.00;;
37777;SDS011;23615;51.506;7.678;2022-09-27T03:53:20;2.90;;;2.10;;
37777;SDS011;23615;51.506;7.678;2022-09-27T03:55:46;4.47;;;1.88;;
37777;SDS011;23615;51.506;7.678;2022-09-27T03:58:11;2.67;;;2.00;;
37777;SDS011;23615;51.506;7.678;2022-09-27T04:00:37;3.42;;;2.00;;
37777;SDS011;23615;51.506;7.678;2022-09-27T04:03:02;4.70;;;2.55;;
37777;SDS011;23615;51.506;7.678;2022-09-27T04:05:29;3.80;;;2.30;;
37777;SDS011;23615;51.506;7.678;2022-09-27T04:07:54;3.63;;;2.25;;
37777;SDS011;23615;51.506;7.678;2022-09-27T04:10:20;2.67;;;1.85;;
37777;SDS011;23615;51.506;7.678;2022-09-27T04:12:45;3.47;;;2.38;;
37777;SDS011;23615;51.506;7.678;2022-09-27T04:15:11;3.95;;;2.72;;
37777;SDS011;23615;51.506;7.678;2022-09-27T04:17:37;4.33;;;2.47;;
37777;SDS011;23615;51.506;7.678;2022-09-27T04:20:05;4.07;;;2.60;;
37777;SDS011;23615;51.506;7.678;2022-09-27T04:22:31;3.25;;;2.25;;
37777;SDS011;23615;51.506;7.678;2022-09-27T04:24:56;3.72;;;2.75;;
37777;SDS011;23615;51.506;7.678;2022-09-27T04:27:22;4.17;;;3.00;;
37777;SDS011;23615;51.506;7.678;2022-09-27T04:29:47;4.23;;;3.17;;
37777;SDS011;23615;51.506;7.678;2022-09-27T04:32:13;6.30;;;4.13;;
37777;SDS011;23615;51.506;7.678;2022-09-27T04:34:39;5.18;;;3.28;;
37777;SDS011;23615;51.506;7.678;2022-09-27T04:37:23;5.28;;;3.33;;
37777;SDS011;23615;51.506;7.678;2022-09-27T04:39:48;4.27;;;3.33;;
37777;SDS011;23615;51.506;7.678;2022-09-27T04:42:14;4.45;;;3.13;;
37777;SDS011;23615;51.506;7.678;2022-09-27T04:44:40;5.43;;;3.40;;
37777;SDS011;23615;51.506;7.678;2022-09-27T04:47:05;3.80;;;3.37;;
37777;SDS011;23615;51.506;7.678;2022-09-27T04:49:30;5.17;;;3.47;;
37777;SDS011;23615;51.506;7.678;2022-09-27T04:51:56;6.23;;;3.57;;
37777;SDS011;23615;51.506;7.678;2022-09-27T04:54:21;5.17;;;3.50;;
37777;SDS011;23615;51.506;7.678;2022-09-27T04:56:46;4.33;;;3.03;;
37777;SDS011;23615;51.506;7.678;2022-09-27T04:59:12;7.47;;;3.40;;
37777;SDS011;23615;51.506;7.678;2022-09-27T05:01:38;3.67;;;3.10;;
37777;SDS011;23615;51.506;7.678;2022-09-27T05:04:04;6.07;;;2.83;;
37777;SDS011;23615;51.506;7.678;2022-09-27T05:06:29;3.27;;;2.70;;
37777;SDS011;23615;51.506;7.678;2022-09-27T05:08:54;3.87;;;3.10;;
37777;SDS011;23615;51.506;7.678;2022-09-27T05:11:19;6.25;;;3.85;;
37777;SDS011;23615;51.506;7.678;2022-09-27T05:13:46;5.20;;;3.85;;
37777;SDS011;23615;51.506;7.678;2022-09-27T05:16:11;7.03;;;4.23;;
37777;SDS011;23615;51.506;7.678;2022-09-27T05:18:36;9.43;;;4.83;;
37777;SDS011;23615;51.506;7.678;2022-09-27T05:21:02;6.82;;;5.57;;
37777;SDS011;23615;51.506;7.678;2022-09-27T05:23:28;6.63;;;5.35;;
37777;SDS011;23615;51.506;7.678;2022-09-27T05:25:53;10.90;;;7.50;;
37777;SDS011;23615;51.506;7.678;2022-09-27T05:28:20;10.35;;;7.57;;
37777;SDS011;23615;51.506;7.678;2022-09-27T05:30:46;9.77;;;7.60;;
37777;SDS011;23615;51.506;7.678;2022-09-27T05:33:11;10.77;;;8.90;;
37777;SDS011;23615;51.506;7.678;2022-09-27T05:35:36;13.87;;;10.03;;
37777;SDS011;23615;51.506;7.678;2022-09-27T05:38:04;11.73;;;9.55;;
37777;SDS011;23615;51.506;7.678;2022-09-27T05:40:29;11.43;;;9.53;;
37777;SDS011;23615;51.506;7.678;2022-09-27T05:42:54;12.97;;;10.27;;
37777;SDS011;23615;51.506;7.678;2022-09-27T05:45:20;11.23;;;9.75;;
37777;SDS011;23615;51.506;7.678;2022-09-27T05:47:51;12.43;;;9.65;;
37777;SDS011;23615;51.506;7.678;2022-09-27T05:50:28;13.98;;;10.93;;
37777;SDS011;23615;51.506;7.678;2022-09-27T05:52:54;14.65;;;11.02;;
37777;SDS011;23615;51.506;7.678;2022-09-27T05:55:25;12.45;;;10.27;;
37777;SDS011;23615;51.506;7.678;2022-09-27T05:57:58;15.45;;;11.55;;
37777;SDS011;23615;51.506;7.678;2022-09-27T06:00:32;15.00;;;12.07;;
37777;SDS011;23615;51.506;7.678;2022-09-27T06:02:59;12.90;;;11.18;;
37777;SDS011;23615;51.506;7.678;2022-09-27T06:05:27;13.40;;;10.85;;
37777;SDS011;23615;51.506;7.678;2022-09-27T06:08:04;14.30;;;10.90;;
37777;SDS011;23615;51.506;7.678;2022-09-27T06:10:32;11.75;;;10.18;;
37777;SDS011;23615;51.506;7.678;2022-09-27T06:13:02;12.85;;;10.38;;
37777;SDS011;23615;51.506;7.678;2022-09-27T06:15:30;14.25;;;10.80;;
37777;SDS011;23615;51.506;7.678;2022-09-27T06:18:01;14.45;;;9.35;;
37777;SDS011;23615;51.506;7.678;2022-09-27T06:20:30;11.18;;;7.93;;
37777;SDS011;23615;51.506;7.678;2022-09-27T06:23:02;10.37;;;7.17;;
37777;SDS011;23615;51.506;7.678;2022-09-27T06:25:28;11.60;;;7.55;;
37777;SDS011;23615;51.506;7.678;2022-09-27T06:27:54;9.93;;;7.07;;
37777;SDS011;23615;51.506;7.678;2022-09-27T06:30:19;9.20;;;6.87;;
37777;SDS011;23615;51.506;7.678;2022-09-27T06:32:44;10.95;;;6.93;;
37777;SDS011;23615;51.506;7.678;2022-09-27T06:35:09;7.87;;;6.37;;
37777;SDS011;23615;51.506;7.678;2022-09-27T06:37:35;8.13;;;7.07;;
37777;SDS011;23615;51.506;7.678;2022-09-27T06:40:00;10.23;;;6.83;;
37777;SDS011;23615;51.506;7.678;2022-09-27T06:42:26;8.13;;;7.00;;
37777;SDS011;23615;51.506;7.678;2022-09-27T06:44:51;9.32;;;7.00;;
37777;SDS011;23615;51.506;7.678;2022-09-27T06:47:18;10.90;;;7.40;;
37777;SDS011;23615;51.506;7.678;2022-09-27T06:49:43;9.30;;;7.70;;
37777;SDS011;23615;51.506;7.678;2022-09-27T06:52:08;9.43;;;7.30;;
37777;SDS011;23615;51.506;7.678;2022-09-27T06:54:34;11.25;;;8.13;;
37777;SDS011;23615;51.506;7.678;2022-09-27T06:56:59;9.60;;;8.15;;
37777;SDS011;23615;51.506;7.678;2022-09-27T06:59:25;8.70;;;7.80;;
37777;SDS011;23615;51.506;7.678;2022-09-27T07:02:08;9.60;;;7.07;;
37777;SDS011;23615;51.506;7.678;2022-09-27T07:04:34;7.53;;;6.32;;
37777;SDS011;23615;51.506;7.678;2022-09-27T07:06:59;7.23;;;6.07;;
37777;SDS011;23615;51.506;7.678;2022-09-27T07:09:25;8.68;;;6.45;;
37777;SDS011;23615;51.506;7.678;2022-09-27T07:11:50;7.00;;;5.77;;
37777;SDS011;23615;51.506;7.678;2022-09-27T07:14:15;9.67;;;5.07;;
37777;SDS011;23615;51.506;7.678;2022-09-27T07:16:41;7.72;;;4.85;;
37777;SDS011;23615;51.506;7.678;2022-09-27T07:19:07;7.05;;;4.85;;
37777;SDS011;23615;51.506;7.678;2022-09-27T07:21:32;6.10;;;5.00;;
37777;SDS011;23615;51.506;7.678;2022-09-27T07:23:58;7.43;;;4.50;;
37777;SDS011;23615;51.506;7.678;2022-09-27T07:26:23;6.83;;;4.67;;
37777;SDS011;23615;51.506;7.678;2022-09-27T07:28:48;7.60;;;4.63;;
37777;SDS011;23615;51.506;7.678;2022-09-27T07:31:14;6.57;;;3.43;;
37777;SDS011;23615;51.506;7.678;2022-09-27T07:33:39;6.17;;;4.00;;
37777;SDS011;23615;51.506;7.678;2022-09-27T07:36:05;5.47;;;3.20;;
37777;SDS011;23615;51.506;7.678;2022-09-27T07:38:32;3.70;;;3.20;;
37777;SDS011;23615;51.506;7.678;2022-09-27T07:40:57;5.43;;;3.30;;
37777;SDS011;23615;51.506;7.678;2022-09-27T07:43:23;4.22;;;2.97;;
37777;SDS011;23615;51.506;7.678;2022-09-27T07:45:48;4.70;;;3.42;;
37777;SDS011;23615;51.506;7.678;2022-09-27T07:48:14;4.43;;;3.05;;
37777;SDS011;23615;51.506;7.678;2022-09-27T07:50:40;5.82;;;3.38;;
37777;SDS011;23615;51.506;7.678;2022-09-27T07:53:06;4.80;;;3.00;;
37777;SDS011;23615;51.506;7.678;2022-09-27T07:55:31;3.43;;;2.90;;
37777;SDS011;23615;51.506;7.678;2022-09-27T07:58:04;4.10;;;3.10;;
37777;SDS011;23615;51.506;7.678;2022-09-27T08:00:31;4.57;;;2.63;;
37777;SDS011;23615;51.506;7.678;2022-09-27T08:02:57;4.00;;;2.60;;
37777;SDS011;23615;51.506;7.678;2022-09-27T08:05:22;3.30;;;2.87;;
37777;SDS011;23615;51.506;7.678;2022-09-27T08:07:52;2.70;;;2.47;;
37777;SDS011;23615;51.506;7.678;2022-09-27T08:10:19;4.28;;;2.35;;
37777;SDS011;23615;51.506;7.678;2022-09-27T08:12:44;3.00;;;2.40;;
37777;SDS011;23615;51.506;7.678;2022-09-27T08:15:10;5.20;;;2.83;;
37777;SDS011;23615;51.506;7.678;2022-09-27T08:17:35;3.93;;;2.87;;
37777;SDS011;23615;51.506;7.678;2022-09-27T08:20:00;3.70;;;2.57;;
37777;SDS011;23615;51.506;7.678;2022-09-27T08:22:30;3.22;;;1.90;;
37777;SDS011;23615;51.506;7.678;2022-09-27T08:24:55;2.07;;;1.83;;
37777;SDS011;23615;51.506;7.678;2022-09-27T08:27:20;2.30;;;1.67;;
37777;SDS011;23615;51.506;7.678;2022-09-27T08:29:46;2.57;;;2.10;;
37777;SDS011;23615;51.506;7.678;2022-09-27T08:32:11;3.20;;;1.90;;
37777;SDS011;23615;51.506;7.678;2022-09-27T08:34:37;4.13;;;2.30;;
37777;SDS011;23615;51.506;7.678;2022-09-27T08:37:03;2.07;;;1.80;;
37777;SDS011;23615;51.506;7.678;2022-09-27T08:39:28;3.17;;;2.58;;
37777;SDS011;23615;51.506;7.678;2022-09-27T08:44:56;3.20;;;2.30;;
37777;SDS011;23615;51.506;7.678;2022-09-27T08:48:00;3.13;;;2.92;;
37777;SDS011;23615;51.506;7.678;2022-09-27T08:50:30;3.03;;;2.65;;
37777;SDS011;23615;51.506;7.678;2022-09-27T08:58:03;2.90;;;2.70;;
37777;SDS011;23615;51.506;7.678;2022-09-27T09:00:50;3.78;;;2.15;;
37777;SDS011;23615;51.506;7.678;2022-09-27T09:03:19;1.98;;;1.83;;
37777;SDS011;23615;51.506;7.678;2022-09-27T09:08:50;3.53;;;2.03;;
37777;SDS011;23615;51.506;7.678;2022-09-27T09:17:36;2.65;;;2.15;;
37777;SDS011;23615;51.506;7.678;2022-09-27T09:31:28;3.65;;;1.70;;
37777;SDS011;23615;51.506;7.678;2022-09-27T09:36:39;2.27;;;1.77;;
37777;SDS011;23615;51.506;7.678;2022-09-27T09:39:17;1.65;;;1.23;;
37777;SDS011;23615;51.506;7.678;2022-09-27T09:44:28;2.67;;;1.75;;
37777;SDS011;23615;51.506;7.678;2022-09-27T09:47:20;1.50;;;1.23;;
37777;SDS011;23615;51.506;7.678;2022-09-27T09:49:55;2.05;;;0.90;;
37777;SDS011;23615;51.506;7.678;2022-09-27T09:52:26;1.77;;;1.02;;
37777;SDS011;23615;51.506;7.678;2022-09-27T09:55:12;1.05;;;0.70;;
37777;SDS011;23615;51.506;7.678;2022-09-27T09:58:09;0.70;;;0.50;;
37777;SDS011;23615;51.506;7.678;2022-09-27T10:00:47;1.05;;;0.63;;
37777;SDS011;23615;51.506;7.678;2022-09-27T10:03:15;1.05;;;0.80;;
37777;SDS011;23615;51.506;7.678;2022-09-27T10:05:42;0.50;;;0.50;;
37777;SDS011;23615;51.506;7.678;2022-09-27T10:08:12;1.10;;;0.60;;
37777;SDS011;23615;51.506;7.678;2022-09-27T10:10:42;1.50;;;0.47;;
37777;SDS011;23615;51.506;7.678;2022-09-27T10:13:09;1.00;;;0.50;;
37777;SDS011;23615;51.506;7.678;2022-09-27T10:15:42;1.45;;;0.68;;
37777;SDS011;23615;51.506;7.678;2022-09-27T10:18:14;1.15;;;0.40;;
37777;SDS011;23615;51.506;7.678;2022-09-27T10:20:47;1.50;;;0.70;;
37777;SDS011;23615;51.506;7.678;2022-09-27T10:23:17;1.50;;;0.50;;
37777;SDS011;23615;51.506;7.678;2022-09-27T10:28:26;0.90;;;0.47;;
37777;SDS011;23615;51.506;7.678;2022-09-27T10:30:57;1.20;;;0.40;;
37777;SDS011;23615;51.506;7.678;2022-09-27T10:33:24;1.38;;;0.60;;
37777;SDS011;23615;51.506;7.678;2022-09-27T10:35:51;1.17;;;0.47;;
37777;SDS011;23615;51.506;7.678;2022-09-27T10:40:42;1.57;;;0.50;;
37777;SDS011;23615;51.506;7.678;2022-09-27T10:43:41;0.90;;;0.40;;
37777;SDS011;23615;51.506;7.678;2022-09-27T10:46:05;2.17;;;0.60;;
37777;SDS011;23615;51.506;7.678;2022-09-27T10:48:37;0.50;;;0.50;;
37777;SDS011;23615;51.506;7.678;2022-09-27T10:51:06;1.00;;;0.30;;
37777;SDS011;23615;51.506;7.678;2022-09-27T10:53:44;0.45;;;0.30;;
37777;SDS011;23615;51.506;7.678;2022-09-27T10:56:19;0.80;;;0.50;;
37777;SDS011;23615;51.506;7.678;2022-09-27T10:58:46;1.35;;;0.40;;
37777;SDS011;23615;51.506;7.678;2022-09-27T11:01:12;1.70;;;0.50;;
37777;SDS011;23615;51.506;7.678;2022-09-27T11:06:47;2.17;;;0.70;;
37777;SDS011;23615;51.506;7.678;2022-09-27T11:09:17;1.27;;;0.43;;
37777;SDS011;23615;51.506;7.678;2022-09-27T11:11:48;1.13;;;0.35;;
37777;SDS011;23615;51.506;7.678;2022-09-27T11:14:18;0.90;;;0.60;;
37777;SDS011;23615;51.506;7.678;2022-09-27T11:19:35;1.00;;;0.60;;
37777;SDS011;23615;51.506;7.678;2022-09-27T11:22:26;1.17;;;0.52;;
37777;SDS011;23615;51.506;7.678;2022-09-27T11:30:22;2.67;;;0.47;;
37777;SDS011;23615;51.506;7.678;2022-09-27T11:57:27;0.80;;;0.38;;
37777;SDS011;23615;51.506;7.678;2022-09-27T12:08:27;1.67;;;0.40;;
37777;SDS011;23615;51.506;7.678;2022-09-27T12:11:02;0.73;;;0.40;;
37777;SDS011;23615;51.506;7.678;2022-09-27T12:13:40;1.00;;;0.50;;
37777;SDS011;23615;51.506;7.678;2022-09-27T12:16:10;1.20;;;0.40;;
37777;SDS011;23615;51.506;7.678;2022-09-27T12:18:39;0.77;;;0.15;;
37777;SDS011;23615;51.506;7.678;2022-09-27T12:21:06;0.77;;;0.17;;
37777;SDS011;23615;51.506;7.678;2022-09-27T12:23:40;1.30;;;0.30;;
37777;SDS011;23615;51.506;7.678;2022-09-27T12:26:10;0.30;;;0.10;;
37777;SDS011;23615;51.506;7.678;2022-09-27T12:36:52;2.10;;;0.30;;
37777;SDS011;23615;51.506;7.678;2022-09-27T12:39:24;0.93;;;0.32;;
37777;SDS011;23615;51.506;7.678;2022-09-27T12:42:00;1.20;;;0.35;;
37777;SDS011;23615;51.506;7.678;2022-09-27T12:44:33;1.30;;;0.60;;
37777;SDS011;23615;51.506;7.678;2022-09-27T12:49:43;1.75;;;0.30;;
37777;SDS011;23615;51.506;7.678;2022-09-27T12:52:13;1.30;;;0.60;;
37777;SDS011;23615;51.506;7.678;2022-09-27T12:57:50;0.57;;;0.57;;
37777;SDS011;23615;51.506;7.678;2022-09-27T13:00:44;0.88;;;0.40;;
37777;SDS011;23615;51.506;7.678;2022-09-27T13:03:26;1.75;;;0.30;;
37777;SDS011;23615;51.506;7.678;2022-09-27T13:14:24;1.23;;;0.35;;
37777;SDS011;23615;51.506;7.678;2022-09-27T13:16:52;0.50;;;0.40;;
37777;SDS011;23615;51.506;7.678;2022-09-27T13:22:05;1.35;;;0.30;;
37777;SDS011;23615;51.506;7.678;2022-09-27T13:27:29;0.70;;;0.35;;
37777;SDS011;23615;51.506;7.678;2022-09-27T13:29:48;1.30;;;0.30;;
37777;SDS011;23615;51.506;7.678;2022-09-27T13:32:18;1.20;;;0.60;;
37777;SDS011;23615;51.506;7.678;2022-09-27T13:34:48;0.82;;;0.47;;
37777;SDS011;23615;51.506;7.678;2022-09-27T13:37:21;1.10;;;0.32;;
37777;SDS011;23615;51.506;7.678;2022-09-27T13:39:47;0.75;;;0.60;;
37777;SDS011;23615;51.506;7.678;2022-09-27T13:42:19;0.90;;;0.40;;
37777;SDS011;23615;51.506;7.678;2022-09-27T13:47:38;1.30;;;0.35;;
37777;SDS011;23615;51.506;7.678;2022-09-27T13:58:22;1.38;;;0.50;;
37777;SDS011;23615;51.506;7.678;2022-09-27T14:00:57;0.57;;;0.40;;
37777;SDS011;23615;51.506;7.678;2022-09-27T14:03:26;0.82;;;0.40;;
37777;SDS011;23615;51.506;7.678;2022-09-27T14:06:00;0.70;;;0.65;;
37777;SDS011;23615;51.506;7.678;2022-09-27T14:11:13;2.03;;;1.60;;
37777;SDS011;23615;51.506;7.678;2022-09-27T14:13:42;2.22;;;1.10;;
37777;SDS011;23615;51.506;7.678;2022-09-27T14:16:13;1.13;;;1.02;;
37777;SDS011;23615;51.506;7.678;2022-09-27T14:18:44;1.58;;;1.15;;
37777;SDS011;23615;51.506;7.678;2022-09-27T14:21:26;1.30;;;1.20;;
37777;SDS011;23615;51.506;7.678;2022-09-27T14:26:48;1.95;;;1.70;;
37777;SDS011;23615;51.506;7.678;2022-09-27T14:29:19;2.00;;;1.77;;
37777;SDS011;23615;51.506;7.678;2022-09-27T14:31:46;2.40;;;1.30;;
37777;SDS011;23615;51.506;7.678;2022-09-27T14:34:27;0.90;;;0.80;;
37777;SDS011;23615;51.506;7.678;2022-09-27T14:36:52;2.00;;;0.98;;
37777;SDS011;23615;51.506;7.678;2022-09-27T14:39:36;2.75;;;0.82;;
37777;SDS011;23615;51.506;7.678;2022-09-27T14:42:02;1.23;;;0.90;;
37777;SDS011;23615;51.506;7.678;2022-09-27T14:44:42;1.17;;;0.80;;
37777;SDS011;23615;51.506;7.678;2022-09-27T14:47:20;1.13;;;0.82;;
37777;SDS011;23615;51.506;7.678;2022-09-27T14:49:51;1.30;;;0.90;;
37777;SDS011;23615;51.506;7.678;2022-09-27T14:52:31;3.60;;;0.93;;
37777;SDS011;23615;51.506;7.678;2022-09-27T14:55:00;1.15;;;0.80;;
37777;SDS011;23615;51.506;7.678;2022-09-27T14:57:33;2.63;;;0.93;;
37777;SDS011;23615;51.506;7.678;2022-09-27T15:00:09;1.20;;;0.95;;
37777;SDS011;23615;51.506;7.678;2022-09-27T15:02:44;1.38;;;0.85;;
37777;SDS011;23615;51.506;7.678;2022-09-27T15:05:17;1.45;;;0.73;;
37777;SDS011;23615;51.506;7.678;2022-09-27T15:07:44;0.93;;;0.65;;
37777;SDS011;23615;51.506;7.678;2022-09-27T15:10:12;1.73;;;0.63;;
37777;SDS011;23615;51.506;7.678;2022-09-27T15:12:41;1.45;;;0.60;;
37777;SDS011;23615;51.506;7.678;2022-09-27T15:15:10;1.75;;;0.70;;
37777;SDS011;23615;51.506;7.678;2022-09-27T15:17:41;1.10;;;0.60;;
37777;SDS011;23615;51.506;7.678;2022-09-27T15:20:18;0.52;;;0.50;;
37777;SDS011;23615;51.506;7.678;2022-09-27T15:22:55;1.35;;;0.77;;
37777;SDS011;23615;51.506;7.678;2022-09-27T15:27:56;2.70;;;0.70;;
37777;SDS011;23615;51.506;7.678;2022-09-27T15:30:24;0.93;;;0.73;;
37777;SDS011;23615;51.506;7.678;2022-09-27T15:32:57;1.33;;;0.60;;
37777;SDS011;23615;51.506;7.678;2022-09-27T15:35:33;1.80;;;0.80;;
37777;SDS011;23615;51.506;7.678;2022-09-27T15:38:08;1.52;;;0.73;;
37777;SDS011;23615;51.506;7.678;2022-09-27T15:43:25;1.42;;;1.00;;
37777;SDS011;23615;51.506;7.678;2022-09-27T15:46:02;0.73;;;0.60;;
37777;SDS011;23615;51.506;7.678;2022-09-27T15:48:30;1.60;;;0.80;;
37777;SDS011;23615;51.506;7.678;2022-09-27T15:50:57;1.15;;;0.90;;
37777;SDS011;23615;51.506;7.678;2022-09-27T15:56:01;1.23;;;0.95;;
37777;SDS011;23615;51.506;7.678;2022-09-27T15:58:28;2.55;;;0.85;;
37777;SDS011;23615;51.506;7.678;2022-09-27T16:00:55;1.90;;;1.10;;
37777;SDS011;23615;51.506;7.678;2022-09-27T16:03:22;0.95;;;0.70;;
37777;SDS011;23615;51.506;7.678;2022-09-27T16:05:48;1.90;;;0.90;;
37777;SDS011;23615;51.506;7.678;2022-09-27T16:08:14;1.23;;;0.77;;
37777;SDS011;23615;51.506;7.678;2022-09-27T16:10:41;1.83;;;1.20;;
37777;SDS011;23615;51.506;7.678;2022-09-27T16:13:09;1.48;;;0.88;;
37777;SDS011;23615;51.506;7.678;2022-09-27T16:15:35;1.90;;;0.90;;
37777;SDS011;23615;51.506;7.678;2022-09-27T16:18:01;2.05;;;0.60;;
37777;SDS011;23615;51.506;7.678;2022-09-27T16:20:26;1.17;;;0.80;;
37777;SDS011;23615;51.506;7.678;2022-09-27T16:22:52;1.50;;;0.70;;
37777;SDS011;23615;51.506;7.678;2022-09-27T16:25:19;1.20;;;0.50;;
37777;SDS011;23615;51.506;7.678;2022-09-27T16:27:45;0.82;;;0.65;;
37777;SDS011;23615;51.506;7.678;2022-09-27T16:30:11;1.02;;;0.70;;
37777;SDS011;23615;51.506;7.678;2022-09-27T16:32:40;2.08;;;0.50;;
37777;SDS011;23615;51.506;7.678;2022-09-27T16:35:11;0.93;;;0.40;;
37777;SDS011;23615;51.506;7.678;2022-09-27T16:37:37;1.38;;;0.60;;
37777;SDS011;23615;51.506;7.678;2022-09-27T16:40:03;1.63;;;0.50;;
37777;SDS011;23615;51.506;7.678;2022-09-27T16:42:30;0.80;;;0.40;;
37777;SDS011;23615;51.506;7.678;2022-09-27T16:44:55;2.35;;;0.50;;
37777;SDS011;23615;51.506;7.678;2022-09-27T16:47:20;0.77;;;0.40;;
37777;SDS011;23615;51.506;7.678;2022-09-27T16:49:46;1.13;;;0.50;;
37777;SDS011;23615;51.506;7.678;2022-09-27T16:52:30;1.50;;;0.50;;
37777;SDS011;23615;51.506;7.678;2022-09-27T16:54:59;1.37;;;0.60;;
37777;SDS011;23615;51.506;7.678;2022-09-27T16:57:25;1.48;;;0.40;;
37777;SDS011;23615;51.506;7.678;2022-09-27T16:59:54;1.07;;;0.47;;
37777;SDS011;23615;51.506;7.678;2022-09-27T17:02:21;1.25;;;0.43;;
37777;SDS011;23615;51.506;7.678;2022-09-27T17:04:48;2.38;;;0.82;;
37777;SDS011;23615;51.506;7.678;2022-09-27T17:07:13;1.15;;;0.63;;
37777;SDS011;23615;51.506;7.678;2022-09-27T17:09:39;1.90;;;0.77;;
37777;SDS011;23615;51.506;7.678;2022-09-27T17:12:04;1.80;;;0.80;;
37777;SDS011;23615;51.506;7.678;2022-09-27T17:14:29;2.53;;;0.80;;
37777;SDS011;23615;51.506;7.678;2022-09-27T17:16:56;0.73;;;0.30;;
37777;SDS011;23615;51.506;7.678;2022-09-27T17:19:21;1.70;;;0.52;;
37777;SDS011;23615;51.506;7.678;2022-09-27T17:21:47;1.63;;;0.50;;
37777;SDS011;23615;51.506;7.678;2022-09-27T17:24:13;0.80;;;0.40;;
37777;SDS011;23615;51.506;7.678;2022-09-27T17:26:38;1.43;;;0.40;;
37777;SDS011;23615;51.506;7.678;2022-09-27T17:29:04;1.60;;;0.60;;
37777;SDS011;23615;51.506;7.678;2022-09-27T17:31:30;1.05;;;0.40;;
37777;SDS011;23615;51.506;7.678;2022-09-27T17:33:58;0.60;;;0.30;;
37777;SDS011;23615;51.506;7.678;2022-09-27T17:36:25;0.73;;;0.20;;
37777;SDS011;23615;51.506;7.678;2022-09-27T17:38:53;0.40;;;0.20;;
37777;SDS011;23615;51.506;7.678;2022-09-27T17:41:22;2.77;;;0.23;;
37777;SDS011;23615;51.506;7.678;2022-09-27T17:43:53;0.90;;;0.20;;
37777;SDS011;23615;51.506;7.678;2022-09-27T17:46:22;0.98;;;0.20;;